Council Hill, Oklahoma
Current Conditions -  °F | °C
As of 6:53 PM on Wednesday 26 Nov 2014 (Local Time) from KMKO Reporting Station
Clear Clear  
Wind Chill: 37°   Ceiling: Unl
Heat Index: 45°   Visibility: 10mi
Dew Point: 25°   Wind: 20mph
Humidity: 46%   Direction: 330°NNW
Pressure: 30.3"   Gusts: NA
Location:  35.56°N, 95.65°W
Report Text: KMKO 270053Z AUTO 33017KT 10SM CLR 07/M04 A3030 RMK AO2 SLP263 T00721039
Loading
Personal Weather Stations






























Interactive Weather Map New forecast layout! Learn more

10-Day Weather Forecast

Advertisements
Track Severe Weather on mobile